Terminal Aerodrome Forecast
Issued by NWS

Home | Current Version | Previous Version | Text Only | Print | Product List | Glossary On
Versions: 1 2 3 4 5 6 7 8 9 10 11 12 13 14 15 16 17 18 19 20 21 22 23 24 25
000
FTUS41 KPBZ 012300
TAFHLG
TAF
KHLG 012336Z 0200/0224 20007KT P6SM SCT040
      TEMPO 0208/0212 4SM BR BKN025
     FM021400 22008KT P6SM -SHRA BKN040
      TEMPO 0216/0220 3SM TSRA OVC035CB
     FM022200 23008KT P6SM BKN025=

USA.gov is the U.S. government's official web portal to all federal, state and local government web resources and services.